createdAt,value
2023-03-17T08:03:27.484Z,100.00
2023-03-17T08:05:58.252Z,100.00
2023-03-17T08:08:29.118Z,100.00
2023-03-17T08:11:05.156Z,100.00
2023-03-17T08:13:35.591Z,100.00
2023-03-17T08:16:05.879Z,100.00
2023-03-17T08:18:38.719Z,100.00
2023-03-17T08:21:09.246Z,100.00
2023-03-17T08:23:39.352Z,100.00
2023-03-17T08:26:09.437Z,100.00
2023-03-17T08:28:39.949Z,100.00
2023-03-17T08:31:13.105Z,100.00
2023-03-17T08:33:48.735Z,100.00
2023-03-17T08:36:19.247Z,98.45
2023-03-17T08:38:50.553Z,96.28
2023-03-17T08:41:28.302Z,96.71
2023-03-17T08:43:58.825Z,95.79
2023-03-17T08:46:30.830Z,98.59
2023-03-17T08:49:04.437Z,100.00
2023-03-17T08:51:37.570Z,100.00
2023-03-17T08:54:08.497Z,100.00
2023-03-17T08:56:38.690Z,93.54
2023-03-17T08:59:08.995Z,92.88
2023-03-17T09:01:40.511Z,91.82
2023-03-17T09:04:13.302Z,87.24
2023-03-17T09:07:01.322Z,87.48
2023-03-17T09:09:34.724Z,90.33
2023-03-17T09:12:06.559Z,87.39
2023-03-17T09:14:43.467Z,86.48
2023-03-17T09:17:15.627Z,89.99
2023-03-17T09:19:48.376Z,89.89
2023-03-17T09:22:20.619Z,90.68
2023-03-17T09:24:50.882Z,84.23
2023-03-17T09:27:21.100Z,83.08
2023-03-17T09:29:51.403Z,90.19
2023-03-17T09:32:21.610Z,86.02
2023-03-17T09:34:54.230Z,85.72
2023-03-17T09:37:24.386Z,83.24
2023-03-17T09:39:54.621Z,83.03
2023-03-17T09:42:39.368Z,84.30
2023-03-17T09:45:25.029Z,79.48
2023-03-17T09:48:24.531Z,78.15
2023-03-17T09:51:00.582Z,69.97
2023-03-17T09:53:35.269Z,73.51
2023-03-17T09:56:11.448Z,69.60
2023-03-17T09:58:43.668Z,70.55
2023-03-17T10:01:14.044Z,69.01
2023-03-17T10:03:45.299Z,71.83
2023-03-17T10:06:37.858Z,73.50
2023-03-17T10:09:26.728Z,68.89
2023-03-17T10:12:05.639Z,70.58
2023-03-17T10:14:51.132Z,69.93
2023-03-17T10:17:23.378Z,68.20
2023-03-17T10:20:01.156Z,70.74
2023-03-17T10:22:41.316Z,65.22
2023-03-17T10:25:17.812Z,68.86
2023-03-17T10:27:54.116Z,67.78
2023-03-17T10:30:26.142Z,64.81
2023-03-17T10:32:59.593Z,69.16
2023-03-17T10:35:30.130Z,67.40
2023-03-17T10:38:14.079Z,66.04
2023-03-17T10:40:47.492Z,63.34
2023-03-17T10:43:21.983Z,63.54
2023-03-17T10:46:02.665Z,63.67
2023-03-17T10:48:34.590Z,65.64
2023-03-17T10:51:10.458Z,63.80
2023-03-17T10:53:46.081Z,63.75
2023-03-17T10:56:26.090Z,69.68
2023-03-17T10:58:59.128Z,67.49
2023-03-17T11:01:33.249Z,62.61
2023-03-17T11:04:04.116Z,63.19
2023-03-17T11:06:42.171Z,65.20
2023-03-17T11:09:21.790Z,63.44
2023-03-17T11:11:53.303Z,63.58
2023-03-17T11:14:23.802Z,60.69
2023-03-17T11:16:58.125Z,58.37
2023-03-17T11:19:39.635Z,59.37
2023-03-17T11:22:16.223Z,60.44
2023-03-17T11:25:02.796Z,57.12
2023-03-17T11:27:35.959Z,58.64
2023-03-17T11:30:25.646Z,59.55
2023-03-17T11:33:00.957Z,57.84
2023-03-17T11:35:38.577Z,59.66
2023-03-17T11:38:22.108Z,59.30
2023-03-17T11:41:31.629Z,58.12
2023-03-17T11:44:23.820Z,58.09
2023-03-17T11:46:59.183Z,58.42
2023-03-17T11:49:36.037Z,58.21
2023-03-17T11:52:14.927Z,62.03
2023-03-17T11:54:53.488Z,57.47
2023-03-17T11:57:33.104Z,56.85
2023-03-17T12:00:08.161Z,57.72
2023-03-17T12:02:45.852Z,61.85
2023-03-17T12:05:19.402Z,57.14
2023-03-17T12:07:55.171Z,56.08
2023-03-17T12:10:28.924Z,55.87
2023-03-17T12:13:05.413Z,54.86
2023-03-17T12:15:40.974Z,55.80
2023-03-17T12:18:18.531Z,54.75
2023-03-17T12:20:54.587Z,55.17
2023-03-17T12:23:32.301Z,54.79
2023-03-17T12:26:07.692Z,56.18
2023-03-17T12:28:47.280Z,54.45
2023-03-17T12:31:23.020Z,54.98
2023-03-17T12:34:02.496Z,55.65
2023-03-17T12:36:41.718Z,56.05
2023-03-17T12:39:15.216Z,54.54
2023-03-17T12:42:14.757Z,57.93
2023-03-17T12:45:03.830Z,58.09
2023-03-17T12:47:50.954Z,59.17
2023-03-17T12:50:50.999Z,56.02
2023-03-17T12:53:40.742Z,55.89
2023-03-17T12:56:17.257Z,56.03
2023-03-17T12:58:49.535Z,57.09
2023-03-17T13:01:30.149Z,53.41
2023-03-17T13:04:05.801Z,53.76
2023-03-17T13:06:42.843Z,55.28
2023-03-17T13:09:45.496Z,54.68
2023-03-17T13:12:45.527Z,54.25
2023-03-17T13:15:26.993Z,53.51
2023-03-17T13:18:27.412Z,54.16
2023-03-17T13:21:15.079Z,55.57
2023-03-17T13:23:47.747Z,51.50
2023-03-17T13:26:21.131Z,50.92
2023-03-17T13:28:53.003Z,49.18
2023-03-17T13:31:36.941Z,47.66
2023-03-17T13:34:16.690Z,46.81
2023-03-17T13:36:58.266Z,48.94
2023-03-17T13:40:02.223Z,51.70
2023-03-17T13:42:44.681Z,49.25
2023-03-17T13:45:28.123Z,49.32
2023-03-17T13:48:44.659Z,48.06
2023-03-17T13:51:23.417Z,49.46
2023-03-17T13:53:57.190Z,50.68
2023-03-17T13:56:30.660Z,51.80
2023-03-17T13:59:15.528Z,50.36
2023-03-17T14:01:50.938Z,48.74
2023-03-17T14:04:25.083Z,49.00
2023-03-17T14:07:02.264Z,48.37
2023-03-17T14:09:39.822Z,49.32
2023-03-17T14:12:16.550Z,51.35
2023-03-17T14:14:53.947Z,50.28
2023-03-17T14:17:28.159Z,51.12
2023-03-17T14:20:11.158Z,52.49
2023-03-17T14:22:48.515Z,53.50
2023-03-17T14:25:20.426Z,52.06
2023-03-17T14:27:54.010Z,53.10
2023-03-17T14:30:26.736Z,52.52
2023-03-17T14:33:03.961Z,50.63
2023-03-17T14:35:35.541Z,50.25
2023-03-17T14:38:20.828Z,48.81
2023-03-17T14:40:51.466Z,47.89
2023-03-17T14:43:21.510Z,47.40
2023-03-17T14:45:54.290Z,46.89
2023-03-17T14:48:30.197Z,47.05
2023-03-17T14:51:06.009Z,44.85
2023-03-17T14:53:43.410Z,47.02
2023-03-17T14:56:13.743Z,47.58
2023-03-17T14:58:46.361Z,46.53
2023-03-17T15:01:20.328Z,46.41
2023-03-17T15:03:59.292Z,47.27
2023-03-17T15:06:35.161Z,47.43
2023-03-17T15:09:21.346Z,48.63
2023-03-17T15:11:52.200Z,49.14
2023-03-17T15:14:34.670Z,50.20
2023-03-17T15:17:06.922Z,49.19
2023-03-17T15:19:42.393Z,51.03
2023-03-17T15:22:28.161Z,49.59
2023-03-17T15:25:21.266Z,48.04
2023-03-17T15:27:51.805Z,48.49
2023-03-17T15:30:22.532Z,48.33
2023-03-17T15:33:00.814Z,49.87
2023-03-17T15:35:31.605Z,48.46
2023-03-17T15:38:01.728Z,48.13
2023-03-17T15:40:34.648Z,48.70
2023-03-17T15:43:04.836Z,48.63
2023-03-17T15:45:34.906Z,48.26
2023-03-17T15:48:04.996Z,48.63
2023-03-17T15:50:35.678Z,50.51
2023-03-17T15:53:06.111Z,49.61
2023-03-17T15:55:38.821Z,48.90
2023-03-17T15:58:08.900Z,48.87
2023-03-17T16:00:39.355Z,48.06
2023-03-17T16:03:18.644Z,47.10
2023-03-17T16:05:48.749Z,46.93
2023-03-17T16:08:19.711Z,47.20
2023-03-17T16:10:52.441Z,47.24
2023-03-17T16:13:22.884Z,48.00
2023-03-17T16:15:58.296Z,48.20
2023-03-17T16:18:35.319Z,47.39
2023-03-17T16:21:06.337Z,48.40
2023-03-17T16:23:38.776Z,48.74
2023-03-17T16:26:16.197Z,48.47
2023-03-17T16:28:47.839Z,49.00
2023-03-17T16:31:30.324Z,49.85
2023-03-17T16:34:02.601Z,49.96
2023-03-17T16:36:32.714Z,49.63
2023-03-17T16:39:02.829Z,49.88
2023-03-17T16:41:38.242Z,49.60
2023-03-17T16:44:09.951Z,51.79
2023-03-17T16:46:40.270Z,52.52
2023-03-17T16:49:10.312Z,59.19
2023-03-17T16:51:40.353Z,65.34
2023-03-17T16:54:10.822Z,72.35
2023-03-17T16:56:45.107Z,86.38
2023-03-17T16:59:21.466Z,90.20
2023-03-17T17:01:52.585Z,90.82
2023-03-17T17:04:24.423Z,95.74
2023-03-17T17:06:55.174Z,99.17
2023-03-17T17:09:25.516Z,100.00
2023-03-17T17:11:58.684Z,100.00
2023-03-17T17:14:28.731Z,94.31
2023-03-17T17:16:58.840Z,90.49
2023-03-17T17:19:28.945Z,100.00
2023-03-17T17:21:59.074Z,96.04
2023-03-17T17:24:29.715Z,100.00
2023-03-17T17:27:02.511Z,100.00
2023-03-17T17:29:32.649Z,100.00
2023-03-17T17:32:02.763Z,100.00
2023-03-17T17:34:32.850Z,100.00
2023-03-17T17:37:02.918Z,91.14
2023-03-17T17:39:33.089Z,99.18
2023-03-17T17:42:05.878Z,100.00
2023-03-17T17:44:37.149Z,100.00
2023-03-17T17:47:07.999Z,94.15
2023-03-17T17:49:38.230Z,93.64
2023-03-17T17:52:08.547Z,93.44
2023-03-17T17:54:38.879Z,95.88
2023-03-17T17:57:11.574Z,100.00
2023-03-17T17:59:41.763Z,100.00
2023-03-17T18:02:13.333Z,99.83
2023-03-17T18:04:43.464Z,88.28
2023-03-17T18:07:13.716Z,93.41
2023-03-17T18:09:43.748Z,90.09
2023-03-17T18:12:16.581Z,100.00
2023-03-17T18:14:46.635Z,100.00
2023-03-17T18:17:21.817Z,97.50
2023-03-17T18:19:53.087Z,100.00
2023-03-17T18:22:23.615Z,100.00
2023-03-17T18:24:53.829Z,98.05
2023-03-17T18:27:26.654Z,100.00
2023-03-17T18:29:58.236Z,100.00
2023-03-17T18:32:29.036Z,100.00
2023-03-17T18:35:05.333Z,100.00
2023-03-17T18:37:35.856Z,100.00
2023-03-17T18:40:15.101Z,94.09
2023-03-17T18:42:50.388Z,100.00
2023-03-17T18:45:20.535Z,100.00
2023-03-17T18:47:50.620Z,100.00
2023-03-17T18:50:22.176Z,100.00
2023-03-17T18:52:53.005Z,99.81
2023-03-17T18:55:23.312Z,100.00
